Terminal Aerodrome Forecast
Issued by NWS Burlington, VT

Home | Current Version | Previous Version | Text Only | Print | Product List | Glossary On
Versions: 1 2 3 4 5 6 7 8 9 10 11 12 13 14 15 16 17 18 19 20 21 22 23
628
FTUS41 KBTV 110901 AAA
TAFBTV
TAF AMD
KBTV 110901Z 1109/1206 VRB03KT P6SM -SHSN OVC025
      TEMPO 1109/1112 1 1/2SM -SN BR BKN015
     FM111400 31010KT P6SM VCSH OVC025
     FM111800 29013G19KT P6SM VCSH OVC030
     FM120000 31011G19KT P6SM BKN040
     FM120400 31008KT P6SM BKN035
     FM120500 31008KT P6SM SCT060=

USA.gov is the U.S. government's official web portal to all federal, state and local government web resources and services.